Time;durP1;ratioP1;P1;durP2;ratioP2;P2;SDS_P1;SDS_P2;PMS_P1;PMS_P2;Temp;Humidity;BMP_temperature;BMP_pressure;BME280_temperature;BME280_humidity;BME280_pressure;Samples;Min_cycle;Max_cycle;Signal;HPM_P1;HPM_P2
2021/03/14 00:00:06;;;;;;;3.78;3.45;;;;;;;;;;5030093;28;20103;-78
2021/03/14 00:02:33;;;;;;;3.63;3.33;;;;;;;;;;5018509;28;20041;-78
2021/03/14 00:05:01;;;;;;;3.92;3.63;;;;;;;;;;5034708;28;20041;-78
2021/03/14 00:07:28;;;;;;;4.72;4.07;;;;;;;;;;5035032;28;20390;-78
2021/03/14 00:09:55;;;;;;;4.55;4.20;;;;;;;;;;5021795;28;20076;-78
2021/03/14 00:12:22;;;;;;;4.95;4.55;;;;;;;;;;5041311;28;20037;-78
2021/03/14 00:14:49;;;;;;;4.30;4.10;;;;;;;;;;5042012;28;20061;-78
2021/03/14 00:17:17;;;;;;;6.25;3.92;;;;;;;;;;5044819;28;20088;-78
2021/03/14 00:19:44;;;;;;;3.53;3.42;;;;;;;;;;5044235;28;20032;-78
2021/03/14 00:22:11;;;;;;;4.13;3.88;;;;;;;;;;5027985;28;20367;-78
2021/03/14 00:24:37;;;;;;;4.32;3.58;;;;;;;;;;5051039;28;20086;-78
2021/03/14 00:27:05;;;;;;;3.80;3.50;;;;;;;;;;5041196;28;20033;-78
2021/03/14 00:29:32;;;;;;;3.83;3.53;;;;;;;;;;5031202;28;20040;-78
2021/03/14 00:32:01;;;;;;;3.50;3.20;;;;;;;;;;5026254;28;20038;-78
2021/03/14 00:34:29;;;;;;;4.38;4.18;;;;;;;;;;5024966;28;20045;-78
2021/03/14 00:36:56;;;;;;;3.80;3.67;;;;;;;;;;5034039;28;20083;-78
2021/03/14 00:39:23;;;;;;;3.78;3.40;;;;;;;;;;5020204;28;20078;-78
2021/03/14 00:41:51;;;;;;;3.13;3.00;;;;;;;;;;5030801;28;20505;-78
2021/03/14 00:44:18;;;;;;;3.20;3.08;;;;;;;;;;5049912;28;20162;-78
2021/03/14 00:46:46;;;;;;;3.92;3.72;;;;;;;;;;5042617;28;20096;-78
2021/03/14 00:49:17;;;;;;;3.85;3.72;;;;;;;;;;5001554;28;20037;-78
2021/03/14 00:51:44;;;;;;;4.18;3.80;;;;;;;;;;5038513;28;20641;-78
2021/03/14 00:54:11;;;;;;;3.88;3.60;;;;;;;;;;5022043;28;20495;-78
2021/03/14 00:56:38;;;;;;;3.95;3.65;;;;;;;;;;5032972;28;20087;-78
2021/03/14 00:59:08;;;;;;;4.10;3.90;;;;;;;;;;5044725;28;20098;-78
2021/03/14 01:01:35;;;;;;;3.22;3.13;;;;;;;;;;5048083;28;20123;-78
2021/03/14 01:04:02;;;;;;;4.35;3.95;;;;;;;;;;5049353;28;20053;-78
2021/03/14 01:06:29;;;;;;;4.45;4.13;;;;;;;;;;5046187;28;20046;-78
2021/03/14 01:08:56;;;;;;;3.22;3.20;;;;;;;;;;5032598;28;20452;-78
2021/03/14 01:11:23;;;;;;;4.03;3.83;;;;;;;;;;5040765;28;20041;-78
2021/03/14 01:13:50;;;;;;;3.97;3.58;;;;;;;;;;5045918;28;20064;-78
2021/03/14 01:16:17;;;;;;;6.57;3.40;;;;;;;;;;5021827;28;20049;-78
2021/03/14 01:18:52;;;;;;;3.33;3.15;;;;;;;;;;5026113;28;20106;-78
2021/03/14 01:21:19;;;;;;;3.90;3.53;;;;;;;;;;5015458;28;20044;-78
2021/03/14 01:23:46;;;;;;;4.40;4.10;;;;;;;;;;5038863;28;20052;-78
2021/03/14 01:26:13;;;;;;;3.75;3.45;;;;;;;;;;5041339;28;20134;-78
2021/03/14 01:28:40;;;;;;;4.85;4.38;;;;;;;;;;5030560;28;20045;-78
2021/03/14 01:31:07;;;;;;;3.83;3.63;;;;;;;;;;5044463;28;20369;-78
2021/03/14 01:33:34;;;;;;;5.15;3.88;;;;;;;;;;5031282;28;20394;-78
2021/03/14 01:36:01;;;;;;;3.70;3.40;;;;;;;;;;5044666;28;20037;-78
2021/03/14 01:38:28;;;;;;;3.95;3.60;;;;;;;;;;5006703;28;20084;-78
2021/03/14 01:40:55;;;;;;;4.78;4.38;;;;;;;;;;5031088;28;20074;-78
2021/03/14 01:43:21;;;;;;;3.35;3.15;;;;;;;;;;5044472;28;20094;-78
2021/03/14 01:45:48;;;;;;;4.70;2.83;;;;;;;;;;5049209;28;20067;-78
2021/03/14 01:48:20;;;;;;;4.97;3.90;;;;;;;;;;5026252;28;20051;-78
2021/03/14 01:50:47;;;;;;;4.82;3.63;;;;;;;;;;5023367;28;20387;-78
2021/03/14 01:53:15;;;;;;;4.43;3.83;;;;;;;;;;5015988;28;20550;-78
2021/03/14 01:55:42;;;;;;;3.92;3.63;;;;;;;;;;5026374;28;20759;-78
2021/03/14 01:58:11;;;;;;;3.90;3.55;;;;;;;;;;5048362;28;20119;-78
2021/03/14 02:00:38;;;;;;;5.07;3.90;;;;;;;;;;5046388;28;20484;-78
2021/03/14 02:03:05;;;;;;;4.10;3.80;;;;;;;;;;5024926;28;20497;-78
2021/03/14 02:05:32;;;;;;;5.43;3.65;;;;;;;;;;5032336;28;20048;-78
2021/03/14 02:07:59;;;;;;;4.50;4.13;;;;;;;;;;5044034;28;20036;-78
2021/03/14 02:10:27;;;;;;;3.50;3.22;;;;;;;;;;5046544;28;20091;-78
2021/03/14 02:12:58;;;;;;;4.40;3.80;;;;;;;;;;5026304;28;20044;-78
2021/03/14 02:15:26;;;;;;;4.22;3.83;;;;;;;;;;5041357;28;20045;-78
2021/03/14 02:17:54;;;;;;;4.18;3.90;;;;;;;;;;5045613;28;20040;-78
2021/03/14 02:20:26;;;;;;;4.10;4.00;;;;;;;;;;5026586;28;20059;-78
2021/03/14 02:22:57;;;;;;;4.93;3.70;;;;;;;;;;5045941;28;20040;-78
2021/03/14 02:25:32;;;;;;;4.13;3.90;;;;;;;;;;5032840;28;20045;-78
2021/03/14 02:28:00;;;;;;;5.63;3.47;;;;;;;;;;5038490;28;20513;-78
2021/03/14 02:30:27;;;;;;;5.32;3.38;;;;;;;;;;5029052;28;20357;-78
2021/03/14 02:32:54;;;;;;;4.25;3.78;;;;;;;;;;5027864;28;20034;-78
2021/03/14 02:35:22;;;;;;;4.35;3.95;;;;;;;;;;5039091;28;20033;-78
2021/03/14 02:37:50;;;;;;;4.45;3.90;;;;;;;;;;5014710;28;20453;-78
2021/03/14 02:40:18;;;;;;;11.65;4.57;;;;;;;;;;5029981;28;20102;-78
2021/03/14 02:42:45;;;;;;;5.38;4.45;;;;;;;;;;5045992;28;20030;-78
2021/03/14 02:45:13;;;;;;;4.22;3.88;;;;;;;;;;5031934;28;20037;-78
2021/03/14 02:47:40;;;;;;;4.38;4.00;;;;;;;;;;5012300;28;20322;-78
2021/03/14 02:50:16;;;;;;;4.68;4.35;;;;;;;;;;5015735;28;20410;-78
2021/03/14 02:52:43;;;;;;;7.43;4.45;;;;;;;;;;5031890;28;20441;-78
2021/03/14 02:55:11;;;;;;;7.10;4.97;;;;;;;;;;5029008;28;20450;-78
2021/03/14 02:57:38;;;;;;;7.93;5.10;;;;;;;;;;5030609;28;20086;-78
2021/03/14 03:00:07;;;;;;;5.25;4.90;;;;;;;;;;5012479;28;20037;-78
2021/03/14 03:02:34;;;;;;;7.72;4.88;;;;;;;;;;5047820;28;20033;-78
2021/03/14 03:05:01;;;;;;;7.22;4.53;;;;;;;;;;5013613;28;20037;-78
2021/03/14 03:07:29;;;;;;;4.75;4.35;;;;;;;;;;5020737;28;20532;-78
2021/03/14 03:09:56;;;;;;;4.80;4.20;;;;;;;;;;5032597;28;20029;-78
2021/03/14 03:12:24;;;;;;;5.55;5.13;;;;;;;;;;5020023;28;20045;-78
2021/03/14 03:14:52;;;;;;;3.97;3.70;;;;;;;;;;5019788;28;20046;-78
2021/03/14 03:17:22;;;;;;;6.78;4.72;;;;;;;;;;5025492;28;20041;-78
2021/03/14 03:19:50;;;;;;;8.07;5.72;;;;;;;;;;5022489;28;20034;-78
2021/03/14 03:22:17;;;;;;;8.32;4.68;;;;;;;;;;5019693;28;20041;-78
2021/03/14 03:24:45;;;;;;;5.13;4.88;;;;;;;;;;5023804;28;20600;-78
2021/03/14 03:27:12;;;;;;;8.25;5.85;;;;;;;;;;5026266;28;20114;-78
2021/03/14 03:29:39;;;;;;;7.13;5.93;;;;;;;;;;5026434;28;20072;-78
2021/03/14 03:32:06;;;;;;;5.97;5.47;;;;;;;;;;5020656;28;20041;-78
2021/03/14 03:34:33;;;;;;;5.55;5.13;;;;;;;;;;5028144;28;20117;-78
2021/03/14 03:37:00;;;;;;;7.70;6.95;;;;;;;;;;5006741;28;20650;-78
2021/03/14 03:39:27;;;;;;;11.63;7.30;;;;;;;;;;5023536;28;20478;-78
2021/03/14 03:41:59;;;;;;;9.70;6.57;;;;;;;;;;5025928;28;20041;-78
2021/03/14 03:44:26;;;;;;;6.45;5.85;;;;;;;;;;5022801;28;20568;-78
2021/03/14 03:46:57;;;;;;;5.93;5.10;;;;;;;;;;5026235;28;20490;-78
2021/03/14 03:49:26;;;;;;;6.80;4.40;;;;;;;;;;5020899;28;20050;-78
2021/03/14 03:51:53;;;;;;;11.50;6.25;;;;;;;;;;5017862;28;20128;-78
2021/03/14 03:54:20;;;;;;;5.65;4.88;;;;;;;;;;5028227;28;20034;-78
2021/03/14 03:56:48;;;;;;;5.72;5.32;;;;;;;;;;5022206;28;20503;-78
2021/03/14 03:59:16;;;;;;;8.75;5.75;;;;;;;;;;5030108;28;20503;-78
2021/03/14 04:01:43;;;;;;;10.95;6.63;;;;;;;;;;5029760;28;20038;-78
2021/03/14 04:04:10;;;;;;;7.07;6.50;;;;;;;;;;5024883;28;20486;-78
2021/03/14 04:06:38;;;;;;;7.43;6.90;;;;;;;;;;5031318;28;20041;-78
2021/03/14 04:09:07;;;;;;;6.45;6.03;;;;;;;;;;5019721;28;20073;-78
2021/03/14 04:11:34;;;;;;;5.25;5.00;;;;;;;;;;5017796;28;20041;-78
2021/03/14 04:14:01;;;;;;;4.88;4.55;;;;;;;;;;5033321;28;20075;-78
2021/03/14 04:16:28;;;;;;;8.43;6.10;;;;;;;;;;5031188;28;20402;-78
2021/03/14 04:18:56;;;;;;;6.45;5.88;;;;;;;;;;5032850;28;20505;-78
2021/03/14 04:21:23;;;;;;;6.57;4.78;;;;;;;;;;5046325;28;20045;-78
2021/03/14 04:23:51;;;;;;;6.18;5.60;;;;;;;;;;5029967;28;20041;-78
2021/03/14 04:26:20;;;;;;;7.85;6.60;;;;;;;;;;5033409;28;20045;-78
2021/03/14 04:28:48;;;;;;;6.30;5.50;;;;;;;;;;5026764;28;20047;-77
2021/03/14 04:31:15;;;;;;;10.95;5.57;;;;;;;;;;5027608;28;20061;-77
2021/03/14 04:33:43;;;;;;;7.95;7.15;;;;;;;;;;5040376;28;20033;-77
2021/03/14 04:36:11;;;;;;;9.95;5.85;;;;;;;;;;5024063;28;20033;-77
2021/03/14 04:38:40;;;;;;;5.05;4.65;;;;;;;;;;5033375;28;20063;-77
2021/03/14 04:41:07;;;;;;;8.75;5.25;;;;;;;;;;5042082;28;20490;-78
2021/03/14 04:43:34;;;;;;;6.35;5.38;;;;;;;;;;5023699;28;20033;-78
2021/03/14 04:46:01;;;;;;;7.53;5.80;;;;;;;;;;5035618;28;20088;-78
2021/03/14 04:48:28;;;;;;;6.40;5.97;;;;;;;;;;5023928;28;20601;-78
2021/03/14 04:50:56;;;;;;;8.18;5.32;;;;;;;;;;5051171;28;20060;-78
2021/03/14 04:53:23;;;;;;;11.18;4.75;;;;;;;;;;5032170;28;20072;-78
2021/03/14 04:55:52;;;;;;;13.95;5.50;;;;;;;;;;5048404;28;20116;-78
2021/03/14 04:58:21;;;;;;;4.20;4.00;;;;;;;;;;5032687;28;20506;-78
2021/03/14 05:00:48;;;;;;;8.20;5.70;;;;;;;;;;5016469;28;20099;-78
2021/03/14 05:03:17;;;;;;;4.38;4.18;;;;;;;;;;5048237;28;20041;-78
2021/03/14 05:05:45;;;;;;;6.78;4.20;;;;;;;;;;5029095;28;20043;-78
2021/03/14 05:08:13;;;;;;;6.65;4.38;;;;;;;;;;5027411;28;20136;-78
2021/03/14 05:10:40;;;;;;;5.10;4.45;;;;;;;;;;5028861;28;20038;-78
2021/03/14 05:13:07;;;;;;;4.43;4.13;;;;;;;;;;5011820;28;20099;-78
2021/03/14 05:15:34;;;;;;;9.75;4.75;;;;;;;;;;5023846;28;20483;-78
2021/03/14 05:18:02;;;;;;;5.53;4.63;;;;;;;;;;5043959;28;20032;-78
2021/03/14 05:20:29;;;;;;;6.95;5.00;;;;;;;;;;5012909;28;20088;-78
2021/03/14 05:22:56;;;;;;;5.57;5.07;;;;;;;;;;5034023;28;20556;-78
2021/03/14 05:25:24;;;;;;;7.03;4.47;;;;;;;;;;5042294;28;20495;-78
2021/03/14 05:27:52;;;;;;;4.85;4.55;;;;;;;;;;5021213;28;20110;-78
2021/03/14 05:30:23;;;;;;;5.68;4.50;;;;;;;;;;5047166;28;20517;-78
2021/03/14 05:32:54;;;;;;;6.93;5.15;;;;;;;;;;5028566;28;20071;-78
2021/03/14 05:35:22;;;;;;;4.90;4.53;;;;;;;;;;5050852;28;20043;-79
2021/03/14 05:37:49;;;;;;;6.13;4.72;;;;;;;;;;5044517;28;20064;-78
2021/03/14 05:40:17;;;;;;;10.52;4.93;;;;;;;;;;5046916;28;20079;-78
2021/03/14 05:42:45;;;;;;;4.82;4.53;;;;;;;;;;5031492;28;20065;-78
2021/03/14 05:45:12;;;;;;;4.55;4.20;;;;;;;;;;5043557;28;20072;-78
2021/03/14 05:47:39;;;;;;;5.93;5.28;;;;;;;;;;5042917;28;20056;-78
2021/03/14 05:50:08;;;;;;;4.75;4.43;;;;;;;;;;5016388;28;20060;-78
2021/03/14 05:52:38;;;;;;;7.18;5.40;;;;;;;;;;5040806;28;20044;-78
2021/03/14 05:55:05;;;;;;;7.65;4.80;;;;;;;;;;5015745;28;20037;-78
2021/03/14 05:57:32;;;;;;;8.35;5.07;;;;;;;;;;5023042;28;20079;-78
2021/03/14 05:59:59;;;;;;;5.93;5.43;;;;;;;;;;5021425;28;20132;-78
2021/03/14 06:02:27;;;;;;;7.93;5.30;;;;;;;;;;5040371;28;20438;-78
2021/03/14 06:04:55;;;;;;;5.90;4.88;;;;;;;;;;5045245;28;20039;-78
2021/03/14 06:07:22;;;;;;;4.88;4.53;;;;;;;;;;5048434;28;20033;-78
2021/03/14 06:09:49;;;;;;;5.78;5.30;;;;;;;;;;5026077;28;20524;-78
2021/03/14 06:12:16;;;;;;;8.25;5.47;;;;;;;;;;5047741;28;20041;-78
2021/03/14 06:14:43;;;;;;;7.22;6.30;;;;;;;;;;5017971;28;20133;-78
2021/03/14 06:17:10;;;;;;;7.07;4.57;;;;;;;;;;5040707;28;20106;-78
2021/03/14 06:19:37;;;;;;;9.60;6.32;;;;;;;;;;5046780;28;20044;-78
2021/03/14 06:22:30;;;;;;;5.00;4.70;;;;;;;;;;5037979;28;20435;-78
2021/03/14 06:24:57;;;;;;;9.73;4.90;;;;;;;;;;5021181;28;20562;-78
2021/03/14 06:27:34;;;;;;;8.52;5.85;;;;;;;;;;5021041;28;20600;-78
2021/03/14 06:30:02;;;;;;;7.50;5.40;;;;;;;;;;5020367;28;20045;-78
2021/03/14 06:32:29;;;;;;;5.13;4.80;;;;;;;;;;5041000;28;20068;-78
2021/03/14 06:35:13;;;;;;;5.03;4.72;;;;;;;;;;5026138;28;20037;-78
2021/03/14 06:37:40;;;;;;;5.32;4.90;;;;;;;;;;5040052;28;20047;-78
2021/03/14 06:40:14;;;;;;;4.93;4.38;;;;;;;;;;5046969;28;20380;-78
2021/03/14 06:42:43;;;;;;;6.00;5.00;;;;;;;;;;5021418;28;20041;-78
2021/03/14 06:45:16;;;;;;;6.45;4.03;;;;;;;;;;5038420;28;20520;-78
2021/03/14 06:47:47;;;;;;;5.22;4.22;;;;;;;;;;5039380;28;20040;-78
2021/03/14 06:50:29;;;;;;;5.70;5.10;;;;;;;;;;5020823;28;20055;-78
2021/03/14 06:53:11;;;;;;;8.93;5.97;;;;;;;;;;5039873;28;20037;-78
2021/03/14 06:55:39;;;;;;;6.53;6.15;;;;;;;;;;5017479;28;20079;-78
2021/03/14 06:58:38;;;;;;;5.50;4.97;;;;;;;;;;5018528;28;20545;-78
2021/03/14 07:01:21;;;;;;;6.10;5.15;;;;;;;;;;4982824;28;20049;-78
2021/03/14 07:03:52;;;;;;;9.48;5.45;;;;;;;;;;4995911;28;20062;-78
2021/03/14 07:06:21;;;;;;;6.57;4.88;;;;;;;;;;4999209;28;20641;-78
2021/03/14 07:08:49;;;;;;;8.80;6.07;;;;;;;;;;5005699;28;20038;-78
2021/03/14 07:11:37;;;;;;;6.50;5.07;;;;;;;;;;5004570;28;20064;-78
2021/03/14 07:14:11;;;;;;;8.63;4.97;;;;;;;;;;5004787;28;20539;-78
2021/03/14 07:16:51;;;;;;;4.43;4.20;;;;;;;;;;5004761;28;20069;-78
2021/03/14 07:19:37;;;;;;;7.93;5.25;;;;;;;;;;4983631;28;20558;-78
2021/03/14 07:22:04;;;;;;;9.77;4.20;;;;;;;;;;5002083;28;20508;-78
2021/03/14 07:24:36;;;;;;;10.48;5.72;;;;;;;;;;4991522;28;20054;-78
2021/03/14 07:27:07;;;;;;;6.00;5.45;;;;;;;;;;5000663;28;20085;-78
2021/03/14 07:29:34;;;;;;;4.68;4.28;;;;;;;;;;5003128;28;20537;-78
2021/03/14 07:32:03;;;;;;;5.13;4.72;;;;;;;;;;5006165;28;20125;-78
2021/03/14 07:34:31;;;;;;;5.75;4.97;;;;;;;;;;5006836;28;20073;-78
2021/03/14 07:36:58;;;;;;;10.35;5.68;;;;;;;;;;5032475;28;20098;-78
2021/03/14 07:39:24;;;;;;;4.40;4.13;;;;;;;;;;5023467;28;20029;-78
2021/03/14 07:41:51;;;;;;;7.45;5.13;;;;;;;;;;5030652;28;20064;-78
2021/03/14 07:44:21;;;;;;;7.13;6.05;;;;;;;;;;5001310;28;20061;-78
2021/03/14 07:46:49;;;;;;;4.82;4.28;;;;;;;;;;5032667;28;20136;-78
2021/03/14 07:49:17;;;;;;;5.43;4.97;;;;;;;;;;5046987;28;20067;-78
2021/03/14 07:51:57;;;;;;;7.15;5.05;;;;;;;;;;5021860;28;20041;-78
2021/03/14 07:54:29;;;;;;;5.00;4.57;;;;;;;;;;5045138;28;20065;-78
2021/03/14 07:56:58;;;;;;;7.88;4.75;;;;;;;;;;5031670;28;20033;-78
2021/03/14 07:59:26;;;;;;;4.65;4.28;;;;;;;;;;5048194;28;20049;-78
2021/03/14 08:01:53;;;;;;;5.05;4.60;;;;;;;;;;5046869;28;20091;-78
2021/03/14 08:04:33;;;;;;;6.20;4.85;;;;;;;;;;5028189;28;20091;-78
2021/03/14 08:07:00;;;;;;;6.38;4.75;;;;;;;;;;5047859;28;20037;-78
2021/03/14 08:09:40;;;;;;;8.00;5.43;;;;;;;;;;5031903;28;20052;-78
2021/03/14 08:12:14;;;;;;;4.50;3.70;;;;;;;;;;5018584;28;20045;-78
2021/03/14 08:14:42;;;;;;;9.52;6.43;;;;;;;;;;5024749;28;20042;-78
2021/03/14 08:17:16;;;;;;;9.07;6.15;;;;;;;;;;5022475;28;20045;-78
2021/03/14 08:19:44;;;;;;;5.65;5.15;;;;;;;;;;5046869;28;20041;-78
2021/03/14 08:22:30;;;;;;;6.60;5.88;;;;;;;;;;5044806;28;20041;-78
2021/03/14 08:25:30;;;;;;;6.53;6.00;;;;;;;;;;5016731;28;20045;-78
2021/03/14 08:28:01;;;;;;;9.52;4.60;;;;;;;;;;5013022;28;20101;-78
2021/03/14 08:30:31;;;;;;;5.40;5.10;;;;;;;;;;4997791;28;20414;-78
2021/03/14 08:33:17;;;;;;;4.43;4.03;;;;;;;;;;4990546;28;20045;-78
2021/03/14 08:35:49;;;;;;;6.75;5.38;;;;;;;;;;4991976;28;20148;-78
2021/03/14 08:38:29;;;;;;;6.80;6.00;;;;;;;;;;4995282;28;20053;-78
2021/03/14 08:41:34;;;;;;;6.50;5.93;;;;;;;;;;5006441;28;20069;-78
2021/03/14 08:44:01;;;;;;;8.40;5.70;;;;;;;;;;4950706;28;20199;-78
2021/03/14 08:46:46;;;;;;;5.88;5.30;;;;;;;;;;4931973;28;20082;-78
2021/03/14 08:49:14;;;;;;;5.78;5.03;;;;;;;;;;4959424;28;20389;-78
2021/03/14 08:51:41;;;;;;;9.57;6.70;;;;;;;;;;4950973;28;20042;-78
2021/03/14 08:54:09;;;;;;;5.65;5.15;;;;;;;;;;4947340;28;20066;-78
2021/03/14 08:56:36;;;;;;;6.10;5.55;;;;;;;;;;4934917;28;20043;-78
2021/03/14 08:59:09;;;;;;;12.30;7.10;;;;;;;;;;4956149;28;20132;-78
2021/03/14 09:01:36;;;;;;;6.55;5.95;;;;;;;;;;4963417;28;20039;-78
2021/03/14 09:04:17;;;;;;;8.05;5.32;;;;;;;;;;4961620;28;20177;-78
2021/03/14 09:06:44;;;;;;;6.88;5.57;;;;;;;;;;4985021;28;20046;-78
2021/03/14 09:09:12;;;;;;;11.32;6.75;;;;;;;;;;4992227;28;20084;-78
2021/03/14 09:11:40;;;;;;;7.85;6.50;;;;;;;;;;4977004;28;20559;-78
2021/03/14 09:14:24;;;;;;;4.60;4.28;;;;;;;;;;4979082;28;20074;-78
2021/03/14 09:16:52;;;;;;;4.55;4.22;;;;;;;;;;4990315;28;20149;-78
2021/03/14 09:19:28;;;;;;;5.38;4.97;;;;;;;;;;5025838;28;20041;-78
2021/03/14 09:21:56;;;;;;;5.00;4.50;;;;;;;;;;5029646;28;20076;-78
2021/03/14 09:24:31;;;;;;;5.60;5.10;;;;;;;;;;5029921;28;20060;-78
2021/03/14 09:26:59;;;;;;;7.18;5.18;;;;;;;;;;5024690;28;20073;-78
2021/03/14 09:29:37;;;;;;;5.43;5.03;;;;;;;;;;5034806;28;20529;-78
2021/03/14 09:32:04;;;;;;;4.38;4.28;;;;;;;;;;5033498;28;20086;-78
2021/03/14 09:34:31;;;;;;;4.80;4.18;;;;;;;;;;5028956;28;20346;-79
2021/03/14 09:36:58;;;;;;;4.38;4.25;;;;;;;;;;5051848;28;20559;-78
2021/03/14 09:39:25;;;;;;;4.03;3.92;;;;;;;;;;5015325;28;20489;-78
2021/03/14 09:41:53;;;;;;;4.28;4.07;;;;;;;;;;5018239;28;20091;-78
2021/03/14 09:44:20;;;;;;;4.70;4.40;;;;;;;;;;5048083;28;20037;-78
2021/03/14 09:46:57;;;;;;;4.80;4.43;;;;;;;;;;5029413;28;20115;-78
2021/03/14 09:49:24;;;;;;;4.65;4.35;;;;;;;;;;5032125;28;20048;-78
2021/03/14 09:51:55;;;;;;;4.10;3.90;;;;;;;;;;5016300;28;20045;-77
2021/03/14 09:54:23;;;;;;;4.10;4.00;;;;;;;;;;5045525;28;20062;-76
2021/03/14 09:56:54;;;;;;;4.57;4.10;;;;;;;;;;5030852;28;20044;-76
2021/03/14 09:59:22;;;;;;;7.80;7.18;;;;;;;;;;5025807;28;20044;-76
2021/03/14 10:01:50;;;;;;;5.53;5.00;;;;;;;;;;5050382;28;20094;-76
2021/03/14 10:04:17;;;;;;;5.47;4.07;;;;;;;;;;5033728;28;20044;-76
2021/03/14 10:06:46;;;;;;;16.15;12.68;;;;;;;;;;5031089;28;20448;-76
2021/03/14 10:09:20;;;;;;;4.10;3.83;;;;;;;;;;5049823;28;20049;-76
2021/03/14 10:11:47;;;;;;;7.40;6.07;;;;;;;;;;5030074;28;20046;-76
2021/03/14 10:14:15;;;;;;;4.38;4.15;;;;;;;;;;5032050;28;20037;-76
2021/03/14 10:16:43;;;;;;;5.80;5.30;;;;;;;;;;5047117;28;20449;-76
2021/03/14 10:19:10;;;;;;;4.97;4.63;;;;;;;;;;5028632;28;20550;-76
2021/03/14 10:21:43;;;;;;;5.25;4.85;;;;;;;;;;5022238;28;20053;-76
2021/03/14 10:24:18;;;;;;;5.45;4.93;;;;;;;;;;5028242;28;20412;-76
2021/03/14 10:26:52;;;;;;;5.72;5.05;;;;;;;;;;5006334;28;20457;-76
2021/03/14 10:29:19;;;;;;;7.13;4.80;;;;;;;;;;5049322;28;20040;-76
2021/03/14 10:31:47;;;;;;;5.30;4.75;;;;;;;;;;5026346;28;20076;-76
2021/03/14 10:34:18;;;;;;;6.13;5.55;;;;;;;;;;5049723;28;20042;-76
2021/03/14 10:36:45;;;;;;;10.60;5.22;;;;;;;;;;5046077;28;20113;-77
2021/03/14 10:39:12;;;;;;;8.57;5.80;;;;;;;;;;5028283;28;20041;-77
2021/03/14 10:41:44;;;;;;;7.72;5.55;;;;;;;;;;5049479;28;20040;-76
2021/03/14 10:44:11;;;;;;;7.35;5.38;;;;;;;;;;5027531;28;20550;-77
2021/03/14 10:46:43;;;;;;;10.27;5.53;;;;;;;;;;5048305;28;20476;-77
2021/03/14 10:49:10;;;;;;;5.15;4.80;;;;;;;;;;5048827;28;20044;-77
2021/03/14 10:51:38;;;;;;;6.43;5.90;;;;;;;;;;5030473;28;20530;-77
2021/03/14 10:54:06;;;;;;;6.25;5.45;;;;;;;;;;5050820;28;20037;-77
2021/03/14 10:56:34;;;;;;;5.32;4.88;;;;;;;;;;5028276;28;20628;-77
2021/03/14 10:59:03;;;;;;;5.60;4.97;;;;;;;;;;5029202;28;20157;-77
2021/03/14 11:01:38;;;;;;;9.50;5.75;;;;;;;;;;5048180;28;20036;-77
2021/03/14 11:04:07;;;;;;;8.20;5.30;;;;;;;;;;5026905;28;20037;-77
2021/03/14 11:06:34;;;;;;;6.03;5.13;;;;;;;;;;5049429;28;20075;-77
2021/03/14 11:09:04;;;;;;;7.75;5.35;;;;;;;;;;5046453;28;20033;-77
2021/03/14 11:11:37;;;;;;;7.55;5.25;;;;;;;;;;5043450;28;20052;-77
2021/03/14 11:14:22;;;;;;;7.28;5.10;;;;;;;;;;5029278;28;20568;-77
2021/03/14 11:17:10;;;;;;;9.20;5.95;;;;;;;;;;5043774;28;20049;-77
2021/03/14 11:19:39;;;;;;;11.18;5.72;;;;;;;;;;5042968;28;20362;-77
2021/03/14 11:22:06;;;;;;;7.55;6.53;;;;;;;;;;5049810;28;20098;-77
2021/03/14 11:24:34;;;;;;;8.70;7.85;;;;;;;;;;5026287;28;20068;-77
2021/03/14 11:27:01;;;;;;;10.65;6.75;;;;;;;;;;5032594;28;20045;-77
2021/03/14 11:29:29;;;;;;;11.82;7.68;;;;;;;;;;5048416;28;20045;-77
2021/03/14 11:31:56;;;;;;;11.65;5.88;;;;;;;;;;5026009;28;20116;-77
2021/03/14 11:34:23;;;;;;;4.90;4.15;;;;;;;;;;5049529;28;20133;-77
2021/03/14 11:36:50;;;;;;;6.45;5.88;;;;;;;;;;5039246;28;20080;-77
2021/03/14 11:39:17;;;;;;;9.15;6.45;;;;;;;;;;5028820;28;20189;-77
2021/03/14 11:41:46;;;;;;;13.82;6.95;;;;;;;;;;5011268;28;20107;-77
2021/03/14 11:44:14;;;;;;;11.73;10.02;;;;;;;;;;5041936;28;20037;-76
2021/03/14 11:46:41;;;;;;;12.50;6.32;;;;;;;;;;5031451;28;20072;-76
2021/03/14 11:49:10;;;;;;;14.45;9.88;;;;;;;;;;5039933;28;20387;-76
2021/03/14 11:51:37;;;;;;;15.32;9.10;;;;;;;;;;5043233;28;20065;-76
2021/03/14 11:54:04;;;;;;;12.38;7.90;;;;;;;;;;5048191;28;20136;-76
2021/03/14 11:56:48;;;;;;;17.55;8.82;;;;;;;;;;5028788;28;20045;-77
2021/03/14 11:59:15;;;;;;;19.52;8.73;;;;;;;;;;5047309;28;20513;-77
2021/03/14 12:01:43;;;;;;;16.67;8.35;;;;;;;;;;5028925;28;20044;-77
2021/03/14 12:04:11;;;;;;;12.68;8.32;;;;;;;;;;5027959;28;20076;-77
2021/03/14 12:06:38;;;;;;;11.90;7.22;;;;;;;;;;5047936;28;20116;-77
2021/03/14 12:09:07;;;;;;;8.02;7.28;;;;;;;;;;5028716;28;20110;-77
2021/03/14 12:11:34;;;;;;;8.32;6.18;;;;;;;;;;5029855;28;20084;-77
2021/03/14 12:14:02;;;;;;;14.73;8.93;;;;;;;;;;5046515;28;20040;-77
2021/03/14 12:16:29;;;;;;;5.47;5.18;;;;;;;;;;5013002;28;20037;-77
2021/03/14 12:18:57;;;;;;;12.65;12.35;;;;;;;;;;5035563;28;20041;-77
2021/03/14 12:21:26;;;;;;;18.92;18.63;;;;;;;;;;5032182;28;20509;-77
2021/03/14 12:23:53;;;;;;;23.10;22.70;;;;;;;;;;5048479;28;20056;-77
2021/03/14 12:26:20;;;;;;;22.90;22.60;;;;;;;;;;5017366;28;20052;-77
2021/03/14 12:28:47;;;;;;;26.55;25.95;;;;;;;;;;5046064;28;20277;-77
2021/03/14 12:31:14;;;;;;;26.92;26.48;;;;;;;;;;5053261;28;20057;-77
2021/03/14 12:33:42;;;;;;;22.95;22.75;;;;;;;;;;5031775;28;20041;-76
2021/03/14 12:36:09;;;;;;;24.38;24.05;;;;;;;;;;5049954;28;20033;-76
2021/03/14 12:38:36;;;;;;;27.10;26.50;;;;;;;;;;5034708;28;20032;-76
2021/03/14 12:41:04;;;;;;;26.67;26.17;;;;;;;;;;5023928;28;20034;-76
2021/03/14 12:43:31;;;;;;;28.15;27.55;;;;;;;;;;5021478;28;20124;-76
2021/03/14 12:45:58;;;;;;;27.48;26.88;;;;;;;;;;5048572;28;20429;-76
2021/03/14 12:48:25;;;;;;;26.25;25.85;;;;;;;;;;5029400;28;20037;-76
2021/03/14 12:50:52;;;;;;;28.83;28.33;;;;;;;;;;5034383;28;20041;-76
2021/03/14 12:53:19;;;;;;;28.55;28.05;;;;;;;;;;5030751;28;20083;-76
2021/03/14 12:55:47;;;;;;;34.28;33.03;;;;;;;;;;5032754;28;20370;-76
2021/03/14 12:58:14;;;;;;;29.17;28.30;;;;;;;;;;5032924;28;20076;-76
2021/03/14 13:00:41;;;;;;;32.95;31.80;;;;;;;;;;5047435;28;20529;-76
2021/03/14 13:03:08;;;;;;;29.92;29.33;;;;;;;;;;5035547;28;20052;-77
2021/03/14 13:05:35;;;;;;;37.03;35.38;;;;;;;;;;5030028;28;20178;-77
2021/03/14 13:08:02;;;;;;;33.30;31.95;;;;;;;;;;5049046;28;20431;-77
2021/03/14 13:10:31;;;;;;;29.90;28.77;;;;;;;;;;5049952;28;20041;-78
2021/03/14 13:12:59;;;;;;;37.10;35.08;;;;;;;;;;5043885;28;20125;-77
2021/03/14 13:15:26;;;;;;;31.17;30.08;;;;;;;;;;5032462;28;20124;-76
2021/03/14 13:17:52;;;;;;;28.10;27.60;;;;;;;;;;5046751;28;20073;-76
2021/03/14 13:20:20;;;;;;;31.88;30.98;;;;;;;;;;5029405;28;20041;-76
2021/03/14 13:23:06;;;;;;;28.10;27.60;;;;;;;;;;5036773;28;20375;-76
2021/03/14 13:25:33;;;;;;;33.38;31.55;;;;;;;;;;5027746;28;20092;-76
2021/03/14 13:28:00;;;;;;;20.55;20.15;;;;;;;;;;5031433;28;20107;-76
2021/03/14 13:30:27;;;;;;;17.55;17.30;;;;;;;;;;5027712;28;20068;-77
2021/03/14 13:32:56;;;;;;;14.45;14.25;;;;;;;;;;5027859;28;20037;-76
2021/03/14 13:35:24;;;;;;;25.75;24.65;;;;;;;;;;5016416;28;20036;-76
2021/03/14 13:37:52;;;;;;;26.00;24.98;;;;;;;;;;5047452;28;20061;-76
2021/03/14 13:40:19;;;;;;;27.35;26.40;;;;;;;;;;5033242;28;20036;-76
2021/03/14 13:42:47;;;;;;;27.20;26.27;;;;;;;;;;5048189;28;20040;-76
2021/03/14 13:45:14;;;;;;;24.55;23.70;;;;;;;;;;5026692;28;20128;-76
2021/03/14 13:47:43;;;;;;;25.58;24.90;;;;;;;;;;5051979;28;20072;-76
2021/03/14 13:50:11;;;;;;;21.42;21.02;;;;;;;;;;5033681;28;20033;-76
2021/03/14 13:52:38;;;;;;;7.88;7.72;;;;;;;;;;5029262;28;20040;-76
2021/03/14 13:55:05;;;;;;;7.97;7.68;;;;;;;;;;5033046;28;20041;-76
2021/03/14 13:57:32;;;;;;;11.57;11.02;;;;;;;;;;5044302;28;20061;-76
2021/03/14 13:59:59;;;;;;;20.52;19.90;;;;;;;;;;5050713;28;20037;-76
2021/03/14 14:02:26;;;;;;;26.95;25.58;;;;;;;;;;5028240;28;20068;-76
2021/03/14 14:04:53;;;;;;;15.85;15.35;;;;;;;;;;5029087;28;20034;-77
2021/03/14 14:07:21;;;;;;;28.75;27.20;;;;;;;;;;5051178;28;20045;-77
2021/03/14 14:09:53;;;;;;;22.95;22.45;;;;;;;;;;5044556;28;20053;-76
2021/03/14 14:12:21;;;;;;;20.08;19.67;;;;;;;;;;5048772;28;20052;-76
2021/03/14 14:14:49;;;;;;;6.47;6.28;;;;;;;;;;5047529;28;20076;-77
2021/03/14 14:17:16;;;;;;;8.57;8.48;;;;;;;;;;5030013;28;20110;-76
2021/03/14 14:19:44;;;;;;;8.00;7.90;;;;;;;;;;5032369;28;20525;-76
2021/03/14 14:22:11;;;;;;;5.63;5.63;;;;;;;;;;5032144;28;20094;-76
2021/03/14 14:24:38;;;;;;;7.88;7.78;;;;;;;;;;5030595;28;20099;-76
2021/03/14 14:27:26;;;;;;;6.10;6.00;;;;;;;;;;5034151;28;20126;-76
2021/03/14 14:29:53;;;;;;;5.70;5.60;;;;;;;;;;5026371;28;20041;-76
2021/03/14 14:32:20;;;;;;;7.13;7.03;;;;;;;;;;5050003;28;20037;-76
2021/03/14 14:34:47;;;;;;;6.25;6.15;;;;;;;;;;5046506;28;20036;-77
2021/03/14 14:37:14;;;;;;;6.57;6.47;;;;;;;;;;5045985;28;20041;-76
2021/03/14 14:39:42;;;;;;;6.15;6.05;;;;;;;;;;5032149;28;20478;-76
2021/03/14 14:42:09;;;;;;;6.43;6.22;;;;;;;;;;5028116;28;20494;-76
2021/03/14 14:44:36;;;;;;;7.00;6.90;;;;;;;;;;5012411;28;20056;-77
2021/03/14 14:47:03;;;;;;;6.95;6.85;;;;;;;;;;5033002;28;20045;-77
2021/03/14 14:49:31;;;;;;;11.00;10.13;;;;;;;;;;5045006;28;20772;-76